createdAt,value
2018-02-11T00:01:16.848Z,10.60
2018-02-11T00:03:45.104Z,10.63
2018-02-11T00:06:12.605Z,9.63
2018-02-11T00:08:40.119Z,8.80
2018-02-11T00:11:07.583Z,6.97
2018-02-11T00:13:35.828Z,7.93
2018-02-11T00:16:03.386Z,12.07
2018-02-11T00:18:30.859Z,11.43
2018-02-11T00:20:58.333Z,9.77
2018-02-11T00:23:25.869Z,6.90
2018-02-11T00:25:53.438Z,6.40
2018-02-11T00:28:20.933Z,7.00
2018-02-11T00:30:49.200Z,13.90
2018-02-11T00:33:17.439Z,8.43
2018-02-11T00:35:44.919Z,7.67
2018-02-11T00:38:12.496Z,10.30
2018-02-11T00:40:39.957Z,10.73
2018-02-11T00:43:08.214Z,9.57
2018-02-11T00:45:35.699Z,7.27
2018-02-11T00:48:04.049Z,12.47
2018-02-11T00:50:31.610Z,8.37
2018-02-11T00:52:59.077Z,9.23
2018-02-11T00:55:27.355Z,12.30
2018-02-11T00:57:54.833Z,9.80
2018-02-11T01:00:23.281Z,8.13
2018-02-11T01:02:50.752Z,7.20
2018-02-11T01:05:18.209Z,11.73
2018-02-11T01:07:46.063Z,12.30
2018-02-11T01:10:13.632Z,8.20
2018-02-11T01:12:41.100Z,10.80
2018-02-11T01:15:08.613Z,9.43
2018-02-11T01:17:36.072Z,6.60
2018-02-11T01:20:03.553Z,12.10
2018-02-11T01:22:31.047Z,5.70
2018-02-11T01:24:59.299Z,8.70
2018-02-11T01:27:26.839Z,9.80
2018-02-11T01:29:54.587Z,8.60
2018-02-11T01:32:22.379Z,11.77
2018-02-11T01:34:49.827Z,13.60
2018-02-11T01:37:17.320Z,10.47
2018-02-11T01:39:45.598Z,10.90
2018-02-11T01:42:13.855Z,8.13
2018-02-11T01:44:41.347Z,11.23
2018-02-11T01:47:09.605Z,9.57
2018-02-11T01:49:37.059Z,9.83
2018-02-11T01:52:04.725Z,10.30
2018-02-11T01:54:32.159Z,7.80
2018-02-11T01:56:59.640Z,10.13
2018-02-11T01:59:27.114Z,9.27
2018-02-11T02:01:55.347Z,11.47
2018-02-11T02:04:22.817Z,10.00
2018-02-11T02:06:50.332Z,11.60
2018-02-11T02:09:17.892Z,7.07
2018-02-11T02:11:45.388Z,8.10
2018-02-11T02:14:12.921Z,7.20
2018-02-11T02:16:40.424Z,8.20
2018-02-11T02:19:07.990Z,13.00
2018-02-11T02:21:35.496Z,7.60
2018-02-11T02:24:02.956Z,8.43
2018-02-11T02:26:30.406Z,14.50
2018-02-11T02:28:57.868Z,12.43
2018-02-11T02:31:25.360Z,10.90
2018-02-11T02:33:53.043Z,7.90
2018-02-11T02:36:20.857Z,10.30
2018-02-11T02:38:48.355Z,10.40
2018-02-11T02:41:15.823Z,8.37
2018-02-11T02:43:43.386Z,9.00
2018-02-11T02:46:10.836Z,8.03
2018-02-11T02:48:38.302Z,7.27
2018-02-11T02:51:05.751Z,5.97
2018-02-11T02:53:33.203Z,7.57
2018-02-11T02:56:00.667Z,7.47
2018-02-11T02:58:28.227Z,6.63
2018-02-11T03:00:55.708Z,9.03
2018-02-11T03:03:23.206Z,6.77
2018-02-11T03:05:50.707Z,9.00
2018-02-11T03:08:18.179Z,5.60
2018-02-11T03:10:46.406Z,5.80
2018-02-11T03:13:13.884Z,5.80
2018-02-11T03:15:41.342Z,7.37
2018-02-11T03:18:08.825Z,4.63
2018-02-11T03:20:36.308Z,5.73
2018-02-11T03:23:03.783Z,5.47
2018-02-11T03:25:31.252Z,4.53
2018-02-11T03:27:58.769Z,5.70
2018-02-11T03:30:26.200Z,5.83
2018-02-11T03:32:53.650Z,6.63
2018-02-11T03:35:21.220Z,5.33
2018-02-11T03:37:48.690Z,5.13
2018-02-11T03:40:16.166Z,4.53
2018-02-11T03:42:44.752Z,4.23
2018-02-11T03:45:14.861Z,3.53
2018-02-11T03:47:42.347Z,4.30
2018-02-11T03:50:09.851Z,5.20
2018-02-11T03:52:37.302Z,6.00
2018-02-11T03:55:04.791Z,5.67
2018-02-11T03:57:32.335Z,5.90
2018-02-11T03:59:59.811Z,3.87
2018-02-11T04:02:27.274Z,6.77
2018-02-11T04:04:55.950Z,4.63
2018-02-11T04:07:23.395Z,4.83
2018-02-11T04:09:50.851Z,6.30
2018-02-11T04:12:18.323Z,6.90
2018-02-11T04:14:45.794Z,5.33
2018-02-11T04:17:14.012Z,5.17
2018-02-11T04:19:41.515Z,5.63
2018-02-11T04:22:08.959Z,6.23
2018-02-11T04:24:36.410Z,7.10
2018-02-11T04:27:03.972Z,6.10
2018-02-11T04:29:31.408Z,3.57
2018-02-11T04:31:58.855Z,5.00
2018-02-11T04:34:26.350Z,5.67
2018-02-11T04:36:53.824Z,6.50
2018-02-11T04:39:21.272Z,4.10
2018-02-11T04:41:48.739Z,3.73
2018-02-11T04:44:16.179Z,6.30
2018-02-11T04:46:43.715Z,5.70
2018-02-11T04:49:11.233Z,3.83
2018-02-11T04:51:39.500Z,6.43
2018-02-11T04:54:07.723Z,4.77
2018-02-11T04:56:35.246Z,4.17
2018-02-11T04:59:03.528Z,3.43
2018-02-11T05:01:31.736Z,4.67
2018-02-11T05:03:59.205Z,3.70
2018-02-11T05:06:26.752Z,5.03
2018-02-11T05:08:54.174Z,5.47
2018-02-11T05:11:22.494Z,4.47
2018-02-11T05:13:49.991Z,5.83
2018-02-11T05:16:17.466Z,4.00
2018-02-11T05:18:45.755Z,4.13
2018-02-11T05:21:13.991Z,3.20
2018-02-11T05:23:41.583Z,2.60
2018-02-11T05:26:09.819Z,2.70
2018-02-11T05:28:37.288Z,4.30
2018-02-11T05:31:04.764Z,3.40
2018-02-11T05:33:32.232Z,5.07
2018-02-11T05:36:00.458Z,3.00
2018-02-11T05:38:27.915Z,2.00
2018-02-11T05:40:55.415Z,2.10
2018-02-11T05:43:22.858Z,3.10
2018-02-11T05:45:50.332Z,2.60
2018-02-11T05:48:17.798Z,2.43
2018-02-11T05:50:46.012Z,2.60
2018-02-11T05:53:13.471Z,3.43
2018-02-11T05:55:41.067Z,2.07
2018-02-11T05:58:08.538Z,2.90
2018-02-11T06:00:36.748Z,1.60
2018-02-11T06:03:04.274Z,1.80
2018-02-11T06:05:31.734Z,2.57
2018-02-11T06:07:59.166Z,2.10
2018-02-11T06:10:26.631Z,5.60
2018-02-11T06:12:54.086Z,2.50
2018-02-11T06:15:21.554Z,4.13
2018-02-11T06:17:49.043Z,2.00
2018-02-11T06:20:17.278Z,1.53
2018-02-11T06:22:44.724Z,1.67
2018-02-11T06:25:12.318Z,1.70
2018-02-11T06:27:39.755Z,1.60
2018-02-11T06:30:07.205Z,2.10
2018-02-11T06:32:34.666Z,2.80
2018-02-11T06:35:02.122Z,2.30
2018-02-11T06:37:29.587Z,2.13
2018-02-11T06:39:57.375Z,2.13
2018-02-11T06:42:24.822Z,3.30
2018-02-11T06:44:52.275Z,1.70
2018-02-11T06:47:19.823Z,3.27
2018-02-11T06:49:47.278Z,1.83
2018-02-11T06:52:14.743Z,2.00
2018-02-11T06:54:42.232Z,1.83
2018-02-11T06:57:09.667Z,2.87
2018-02-11T06:59:37.152Z,2.77
2018-02-11T07:02:04.894Z,1.53
2018-02-11T07:04:32.347Z,1.60
2018-02-11T07:06:59.795Z,1.93
2018-02-11T07:09:27.268Z,1.23
2018-02-11T07:11:54.720Z,1.60
2018-02-11T07:14:22.163Z,2.00
2018-02-11T07:16:49.631Z,1.80
2018-02-11T07:19:17.096Z,1.40
2018-02-11T07:21:44.554Z,1.70
2018-02-11T07:24:12.119Z,1.87
2018-02-11T07:26:39.571Z,1.37
2018-02-11T07:29:07.046Z,1.50
2018-02-11T07:31:34.499Z,2.20
2018-02-11T07:34:01.943Z,2.30
2018-02-11T07:36:29.422Z,1.77
2018-02-11T07:38:56.891Z,2.23
2018-02-11T07:41:25.186Z,1.60
2018-02-11T07:43:53.398Z,2.20
2018-02-11T07:46:20.901Z,2.00
2018-02-11T07:48:49.168Z,2.37
2018-02-11T07:51:16.611Z,2.03
2018-02-11T07:53:44.093Z,2.87
2018-02-11T07:56:11.531Z,1.93
2018-02-11T07:58:39.003Z,2.50
2018-02-11T08:01:06.455Z,2.63
2018-02-11T08:03:33.915Z,2.53
2018-02-11T08:06:01.378Z,2.60
2018-02-11T08:08:29.051Z,3.17
2018-02-11T08:10:57.319Z,3.63
2018-02-11T08:13:24.756Z,2.53
2018-02-11T08:15:52.229Z,3.47
2018-02-11T08:18:19.687Z,3.60
2018-02-11T08:20:47.131Z,2.70
2018-02-11T08:23:14.602Z,3.33
2018-02-11T08:25:42.149Z,2.80
2018-02-11T08:28:09.602Z,2.73
2018-02-11T08:30:37.273Z,3.70
2018-02-11T08:33:04.710Z,3.77
2018-02-11T08:35:32.183Z,2.40
2018-02-11T08:37:59.691Z,2.43
2018-02-11T08:40:27.135Z,3.30
2018-02-11T08:42:55.667Z,3.83
2018-02-11T08:45:23.176Z,4.30
2018-02-11T08:47:51.418Z,3.00
2018-02-11T08:50:18.862Z,5.40
2018-02-11T08:52:46.400Z,2.73
2018-02-11T08:55:13.869Z,3.53
2018-02-11T08:57:41.339Z,3.70
2018-02-11T09:00:08.817Z,2.70
2018-02-11T09:02:36.254Z,3.80
2018-02-11T09:05:03.717Z,2.90
2018-02-11T09:07:31.189Z,3.13
2018-02-11T09:09:58.684Z,2.77
2018-02-11T09:12:26.910Z,2.90
2018-02-11T09:14:54.411Z,3.07
2018-02-11T09:17:22.727Z,3.20
2018-02-11T09:19:50.187Z,3.00
2018-02-11T09:22:17.664Z,3.80
2018-02-11T09:24:45.346Z,3.87
2018-02-11T09:27:12.820Z,4.47
2018-02-11T09:29:41.144Z,3.37
2018-02-11T09:32:08.567Z,6.63
2018-02-11T09:34:36.814Z,6.40
2018-02-11T09:37:04.566Z,6.17
2018-02-11T09:39:32.035Z,6.00
2018-02-11T09:41:59.480Z,5.60
2018-02-11T09:44:27.320Z,5.30
2018-02-11T09:46:54.820Z,6.57
2018-02-11T09:49:22.289Z,7.30
2018-02-11T09:51:49.772Z,6.13
2018-02-11T09:54:18.006Z,7.63
2018-02-11T09:56:45.671Z,6.53
2018-02-11T09:59:13.131Z,6.33
2018-02-11T10:01:40.585Z,7.37
2018-02-11T10:04:08.076Z,8.10
2018-02-11T10:06:36.298Z,6.03
2018-02-11T10:09:03.755Z,9.53
2018-02-11T10:11:31.236Z,9.63
2018-02-11T10:13:58.814Z,8.13
2018-02-11T10:16:26.258Z,9.73
2018-02-11T10:18:53.730Z,8.30
2018-02-11T10:21:21.573Z,7.47
2018-02-11T10:23:49.243Z,8.90
2018-02-11T10:26:16.873Z,9.03
2018-02-11T10:28:44.331Z,8.37
2018-02-11T10:31:11.800Z,14.67
2018-02-11T10:33:39.332Z,7.50
2018-02-11T10:36:06.771Z,9.60
2018-02-11T10:38:35.056Z,7.77
2018-02-11T10:41:02.743Z,9.07
2018-02-11T10:43:30.223Z,10.23
2018-02-11T10:45:57.688Z,10.30
2018-02-11T10:48:25.198Z,10.27
2018-02-11T10:50:52.656Z,8.67
2018-02-11T10:53:20.907Z,9.10
2018-02-11T10:55:48.571Z,8.20
2018-02-11T10:58:16.043Z,7.73
2018-02-11T11:00:44.309Z,6.43
2018-02-11T11:03:12.599Z,14.17
2018-02-11T11:05:40.898Z,5.53
2018-02-11T11:08:08.394Z,10.60
2018-02-11T11:10:36.012Z,8.87
2018-02-11T11:13:04.361Z,8.50
2018-02-11T11:15:32.126Z,7.80
2018-02-11T11:17:59.889Z,11.70
2018-02-11T11:20:27.460Z,10.70
2018-02-11T11:22:55.708Z,10.13
2018-02-11T11:25:23.294Z,10.80
2018-02-11T11:27:50.759Z,6.23
2018-02-11T11:30:19.089Z,12.87
2018-02-11T11:32:46.631Z,9.23
2018-02-11T11:35:14.155Z,6.27
2018-02-11T11:37:42.531Z,8.17
2018-02-11T11:40:10.898Z,7.40
2018-02-11T11:42:38.432Z,6.80
2018-02-11T11:45:06.385Z,7.23
2018-02-11T11:47:33.895Z,6.80
2018-02-11T11:50:01.474Z,10.77
2018-02-11T11:52:29.775Z,8.50
2018-02-11T11:54:57.386Z,11.20
2018-02-11T11:57:24.955Z,8.30
2018-02-11T11:59:54.036Z,12.93
2018-02-11T12:02:21.894Z,13.10
2018-02-11T12:04:50.021Z,11.67
2018-02-11T12:07:17.527Z,10.73
2018-02-11T12:09:45.115Z,5.80
2018-02-11T12:12:13.360Z,7.40
2018-02-11T12:14:40.962Z,12.10
2018-02-11T12:17:09.233Z,3.57
2018-02-11T12:19:37.543Z,9.23
2018-02-11T12:22:05.230Z,7.10
2018-02-11T12:24:32.712Z,6.50
2018-02-11T12:27:00.459Z,4.57
2018-02-11T12:29:28.036Z,4.83
2018-02-11T12:31:55.615Z,11.70
2018-02-11T12:34:23.906Z,10.83
2018-02-11T12:36:52.222Z,9.10
2018-02-11T12:39:19.894Z,6.47
2018-02-11T12:41:47.695Z,4.17
2018-02-11T12:44:15.148Z,6.27
2018-02-11T12:46:42.733Z,12.83
2018-02-11T12:49:10.178Z,6.30
2018-02-11T12:51:38.731Z,6.73
2018-02-11T12:54:06.289Z,5.43
2018-02-11T12:56:33.954Z,10.10
2018-02-11T12:59:01.511Z,5.80
2018-02-11T13:01:29.151Z,4.00
2018-02-11T13:03:56.664Z,9.97
2018-02-11T13:06:25.042Z,7.50
2018-02-11T13:08:53.370Z,8.10
2018-02-11T13:11:21.398Z,11.97
2018-02-11T13:13:49.625Z,8.70
2018-02-11T13:16:17.128Z,7.67
2018-02-11T13:18:45.685Z,10.00
2018-02-11T13:21:13.173Z,7.10
2018-02-11T13:23:41.011Z,11.87
2018-02-11T13:26:08.462Z,10.10
2018-02-11T13:28:35.971Z,6.90
2018-02-11T13:31:04.223Z,7.23
2018-02-11T13:33:31.707Z,8.60
2018-02-11T13:36:00.283Z,7.73
2018-02-11T13:38:27.908Z,6.17
2018-02-11T13:40:55.414Z,9.50
2018-02-11T13:43:24.076Z,4.50
2018-02-11T13:45:52.474Z,8.07
2018-02-11T13:48:19.999Z,6.87
2018-02-11T13:50:47.519Z,9.43
2018-02-11T13:53:15.053Z,7.67
2018-02-11T13:55:42.591Z,5.83
2018-02-11T13:58:10.055Z,8.10
2018-02-11T14:00:37.596Z,7.70
2018-02-11T14:03:05.115Z,11.73
2018-02-11T14:05:33.349Z,5.17
2018-02-11T14:08:01.923Z,7.97
2018-02-11T14:10:29.410Z,10.37
2018-02-11T14:12:57.781Z,6.13
2018-02-11T14:15:25.294Z,5.37
2018-02-11T14:17:52.782Z,7.27
2018-02-11T14:20:20.475Z,5.97
2018-02-11T14:22:48.778Z,6.17
2018-02-11T14:25:16.262Z,5.53
2018-02-11T14:27:43.721Z,8.03
2018-02-11T14:30:11.867Z,13.90
2018-02-11T14:32:39.353Z,8.67
2018-02-11T14:35:07.755Z,8.70
2018-02-11T14:37:36.085Z,5.20
2018-02-11T14:40:03.596Z,7.90
2018-02-11T14:42:32.025Z,6.20
2018-02-11T14:44:59.580Z,7.47
2018-02-11T14:47:27.082Z,6.27
2018-02-11T14:49:55.388Z,5.87
2018-02-11T14:52:23.617Z,8.13
2018-02-11T14:54:51.152Z,7.07
2018-02-11T14:57:18.633Z,8.97
2018-02-11T14:59:46.128Z,8.77
2018-02-11T15:02:13.651Z,6.47
2018-02-11T15:04:41.573Z,8.13
2018-02-11T15:07:09.901Z,4.67
2018-02-11T15:09:37.609Z,9.23
2018-02-11T15:12:05.860Z,6.13
2018-02-11T15:14:33.316Z,5.77
2018-02-11T15:17:00.910Z,6.27
2018-02-11T15:19:29.168Z,5.87
2018-02-11T15:21:57.894Z,4.27
2018-02-11T15:24:25.491Z,5.33
2018-02-11T15:26:54.557Z,6.80
2018-02-11T15:29:22.025Z,4.20
2018-02-11T15:31:50.772Z,7.30
2018-02-11T15:34:18.320Z,7.30
2018-02-11T15:36:45.779Z,7.00
2018-02-11T15:39:13.255Z,7.57
2018-02-11T15:41:40.731Z,9.43
2018-02-11T15:44:08.197Z,6.40
2018-02-11T15:46:36.654Z,5.83
2018-02-11T15:49:04.135Z,8.80
2018-02-11T15:51:31.632Z,7.00
2018-02-11T15:53:59.158Z,9.60
2018-02-11T15:56:27.694Z,9.50
2018-02-11T15:58:55.392Z,12.30
2018-02-11T16:01:23.667Z,12.63
2018-02-11T16:03:51.234Z,12.43
2018-02-11T16:06:19.826Z,8.20
2018-02-11T16:08:48.486Z,6.53
2018-02-11T16:11:16.176Z,6.90
2018-02-11T16:13:44.389Z,3.40
2018-02-11T16:16:12.138Z,6.90
2018-02-11T16:18:40.403Z,4.90
2018-02-11T16:21:08.661Z,5.70
2018-02-11T16:23:36.116Z,8.20
2018-02-11T16:26:03.580Z,4.23
2018-02-11T16:28:31.488Z,4.20
2018-02-11T16:30:59.059Z,8.67
2018-02-11T16:33:26.620Z,4.60
2018-02-11T16:35:54.149Z,4.63
2018-02-11T16:38:22.405Z,6.50
2018-02-11T16:40:49.909Z,5.77
2018-02-11T16:43:17.727Z,8.43
2018-02-11T16:45:45.184Z,7.60
2018-02-11T16:48:12.635Z,5.27
2018-02-11T16:50:40.212Z,6.10
2018-02-11T16:53:07.817Z,7.33
2018-02-11T16:55:35.397Z,5.53
2018-02-11T16:58:03.138Z,5.70
2018-02-11T17:00:31.037Z,6.40
2018-02-11T17:02:58.600Z,8.07
2018-02-11T17:05:26.320Z,8.00
2018-02-11T17:07:53.819Z,9.07
2018-02-11T17:10:21.537Z,7.20
2018-02-11T17:12:49.858Z,5.80
2018-02-11T17:15:17.399Z,5.60
2018-02-11T17:17:44.907Z,5.47
2018-02-11T17:20:13.288Z,9.77
2018-02-11T17:22:41.622Z,7.90
2018-02-11T17:25:09.088Z,7.50
2018-02-11T17:27:36.890Z,15.03
2018-02-11T17:30:04.365Z,6.80
2018-02-11T17:32:32.161Z,10.07
2018-02-11T17:34:59.823Z,12.83
2018-02-11T17:37:27.374Z,8.47
2018-02-11T17:39:55.045Z,8.57
2018-02-11T17:42:22.623Z,8.43
2018-02-11T17:44:50.192Z,17.90
2018-02-11T17:47:17.897Z,14.23
2018-02-11T17:49:46.215Z,12.20
2018-02-11T17:52:13.718Z,7.70
2018-02-11T17:54:42.834Z,9.87
2018-02-11T17:57:11.087Z,11.60
2018-02-11T17:59:38.539Z,9.07
2018-02-11T18:02:06.066Z,7.80
2018-02-11T18:04:33.560Z,6.07
2018-02-11T18:07:01.044Z,7.77
2018-02-11T18:09:29.272Z,7.10
2018-02-11T18:11:56.803Z,10.13
2018-02-11T18:14:24.394Z,11.30
2018-02-11T18:16:51.884Z,8.73
2018-02-11T18:19:19.549Z,8.60
2018-02-11T18:21:47.354Z,7.60
2018-02-11T18:24:14.861Z,16.97
2018-02-11T18:26:42.535Z,11.90
2018-02-11T18:29:10.008Z,10.40
2018-02-11T18:31:38.239Z,11.10
2018-02-11T18:34:06.034Z,8.00
2018-02-11T18:36:33.697Z,9.27
2018-02-11T18:39:01.216Z,6.67
2018-02-11T18:41:28.690Z,7.67
2018-02-11T18:43:56.575Z,6.57
2018-02-11T18:46:24.046Z,12.27
2018-02-11T18:48:52.456Z,6.57
2018-02-11T18:51:19.925Z,5.90
2018-02-11T18:53:47.437Z,7.17
2018-02-11T18:56:15.001Z,8.13
2018-02-11T18:58:42.765Z,10.10
2018-02-11T19:01:10.298Z,9.23
2018-02-11T19:03:37.792Z,7.60
2018-02-11T19:06:06.043Z,8.90
2018-02-11T19:08:33.535Z,8.07
2018-02-11T19:11:01.798Z,8.40
2018-02-11T19:13:29.311Z,9.70
2018-02-11T19:15:56.814Z,7.67
2018-02-11T19:18:24.375Z,8.03
2018-02-11T19:20:51.985Z,6.83
2018-02-11T19:23:19.960Z,7.57
2018-02-11T19:25:47.468Z,8.37
2018-02-11T19:28:15.739Z,5.10
2018-02-11T19:30:43.198Z,5.27
2018-02-11T19:33:11.493Z,8.67
2018-02-11T19:35:39.748Z,7.17
2018-02-11T19:38:08.036Z,8.87
2018-02-11T19:40:35.507Z,5.90
2018-02-11T19:43:03.016Z,7.50
2018-02-11T19:45:30.510Z,7.13
2018-02-11T19:47:58.085Z,6.93
2018-02-11T19:50:25.516Z,7.57
2018-02-11T19:52:52.962Z,8.30
2018-02-11T19:55:20.490Z,11.17
2018-02-11T19:57:47.953Z,11.57
2018-02-11T20:00:15.507Z,11.40
2018-02-11T20:02:42.987Z,7.23
2018-02-11T20:05:10.470Z,9.40
2018-02-11T20:07:37.928Z,8.13
2018-02-11T20:10:05.508Z,8.30
2018-02-11T20:12:33.131Z,9.97
2018-02-11T20:15:00.593Z,6.67
2018-02-11T20:17:28.084Z,9.43
2018-02-11T20:19:55.521Z,6.00
2018-02-11T20:22:22.991Z,11.60
2018-02-11T20:24:50.502Z,10.37
2018-02-11T20:27:17.990Z,8.03
2018-02-11T20:29:45.513Z,6.27
2018-02-11T20:32:13.133Z,8.93
2018-02-11T20:34:40.759Z,6.37
2018-02-11T20:37:08.445Z,7.93
2018-02-11T20:39:35.996Z,8.33
2018-02-11T20:42:03.529Z,8.80
2018-02-11T20:44:31.047Z,9.30
2018-02-11T20:46:59.465Z,11.70
2018-02-11T20:49:26.943Z,7.37
2018-02-11T20:51:54.467Z,8.20
2018-02-11T20:54:22.038Z,7.30
2018-02-11T20:56:49.561Z,11.13
2018-02-11T20:59:17.122Z,8.10
2018-02-11T21:01:44.591Z,9.47
2018-02-11T21:04:12.100Z,9.90
2018-02-11T21:06:39.572Z,7.50
2018-02-11T21:09:07.051Z,10.57
2018-02-11T21:11:34.561Z,8.80
2018-02-11T21:14:02.027Z,9.13
2018-02-11T21:16:29.575Z,11.57
2018-02-11T21:18:57.276Z,8.97
2018-02-11T21:21:24.755Z,9.70
2018-02-11T21:23:52.238Z,5.60
2018-02-11T21:26:19.726Z,7.13
2018-02-11T21:28:47.986Z,6.83
2018-02-11T21:31:15.503Z,8.63
2018-02-11T21:33:42.959Z,7.13
2018-02-11T21:36:10.403Z,8.20
2018-02-11T21:38:38.124Z,6.67
2018-02-11T21:41:05.614Z,7.33
2018-02-11T21:43:33.100Z,8.37
2018-02-11T21:46:00.842Z,8.90
2018-02-11T21:48:28.527Z,11.50
2018-02-11T21:50:55.970Z,9.90
2018-02-11T21:53:23.738Z,11.47
2018-02-11T21:55:51.198Z,11.00
2018-02-11T21:58:18.674Z,11.10
2018-02-11T22:00:47.008Z,11.23
2018-02-11T22:03:14.516Z,10.93
2018-02-11T22:05:42.793Z,10.40
2018-02-11T22:08:11.063Z,13.53
2018-02-11T22:10:39.316Z,12.40
2018-02-11T22:13:06.802Z,13.70
2018-02-11T22:15:35.126Z,12.73
2018-02-11T22:18:02.610Z,13.53
2018-02-11T22:20:30.272Z,13.97
2018-02-11T22:22:57.830Z,17.80
2018-02-11T22:25:25.313Z,13.83
2018-02-11T22:27:53.575Z,12.63
2018-02-11T22:30:21.059Z,14.20
2018-02-11T22:32:49.446Z,11.30
2018-02-11T22:35:17.712Z,12.10
2018-02-11T22:37:45.185Z,12.40
2018-02-11T22:40:13.643Z,9.90
2018-02-11T22:42:41.101Z,10.97
2018-02-11T22:45:08.730Z,10.10
2018-02-11T22:47:36.209Z,12.73
2018-02-11T22:50:03.678Z,9.20
2018-02-11T22:52:31.194Z,9.57
2018-02-11T22:54:58.671Z,9.53
2018-02-11T22:57:26.196Z,8.77
2018-02-11T22:59:53.796Z,10.10
2018-02-11T23:02:21.262Z,10.83
2018-02-11T23:04:48.740Z,13.70
2018-02-11T23:07:17.234Z,8.30
2018-02-11T23:09:45.499Z,7.30
2018-02-11T23:12:13.007Z,7.50
2018-02-11T23:14:40.495Z,11.47
2018-02-11T23:17:07.981Z,8.37
2018-02-11T23:19:47.898Z,6.57
2018-02-11T23:22:15.395Z,8.80
2018-02-11T23:24:43.686Z,8.00
2018-02-11T23:27:11.933Z,8.57
2018-02-11T23:29:39.394Z,8.90
2018-02-11T23:32:06.892Z,10.70
2018-02-11T23:34:35.131Z,8.60
2018-02-11T23:37:02.690Z,8.77
2018-02-11T23:39:30.203Z,8.30
2018-02-11T23:41:57.665Z,12.27
2018-02-11T23:44:25.127Z,7.97
2018-02-11T23:46:52.619Z,9.70
2018-02-11T23:49:20.186Z,9.60
2018-02-11T23:51:47.702Z,11.30
2018-02-11T23:54:15.283Z,10.80
2018-02-11T23:56:42.740Z,8.10
2018-02-11T23:59:10.223Z,13.63
